Beloit, Kansas
Current Conditions -  °F | °C
As of 5:55 PM on Monday 20 Oct 2014 (Local Time) from KCNK Reporting Station
Clear Clear  
Wind Chill: 74°   Ceiling: Unl
Heat Index: 74°   Visibility: 10mi
Dew Point: 45°   Wind: 3mph
Humidity: 35%   Direction: 50°NE
Pressure: 30.05"   Gusts: NA
Location:  39.46°N, 98.11°W
Report Text: KCNK 202255Z AUTO 05003KT 10SM CLR 23/07 A3005 RMK AO2 SLP170 T02330072
Loading
Personal Weather Stations






























Interactive Weather Map
Tropical Storm Tracking
New forecast layout! Learn more

10-Day Weather Forecast

Advertisements
Track Severe Weather on mobile